地図

経路データ

SID SEASON NUMBER BASIN SUBBASIN NAME ISO_TIME NATURE LAT LON WMO_WIND WMO_PRES WMO_AGENCY TRACK_TYPE DIST2LAND LANDFALL IFLAG USA_AGENCY USA_ATCF_ID USA_LAT USA_LON USA_RECORD USA_STATUS USA_WIND USA_PRES USA_SSHS USA_R34_NE USA_R34_SE USA_R34_SW USA_R34_NW USA_R50_NE USA_R50_SE USA_R50_SW USA_R50_NW USA_R64_NE USA_R64_SE USA_R64_SW USA_R64_NW USA_POCI USA_ROCI USA_RMW USA_EYE TOKYO_LAT TOKYO_LON TOKYO_GRADE TOKYO_WIND TOKYO_PRES TOKYO_R50_DIR TOKYO_R50_LONG TOKYO_R50_SHORT TOKYO_R30_DIR TOKYO_R30_LONG TOKYO_R30_SHORT TOKYO_LAND CMA_LAT CMA_LON CMA_CAT CMA_WIND CMA_PRES HKO_LAT HKO_LON HKO_CAT HKO_WIND HKO_PRES NEWDELHI_LAT NEWDELHI_LON NEWDELHI_GRADE NEWDELHI_WIND NEWDELHI_PRES NEWDELHI_CI NEWDELHI_DP NEWDELHI_POCI REUNION_LAT REUNION_LON REUNION_TYPE REUNION_WIND REUNION_PRES REUNION_TNUM REUNION_CI REUNION_RMW REUNION_R34_NE REUNION_R34_SE REUNION_R34_SW REUNION_R34_NW REUNION_R50_NE REUNION_R50_SE REUNION_R50_SW REUNION_R50_NW REUNION_R64_NE REUNION_R64_SE REUNION_R64_SW REUNION_R64_NW BOM_LAT BOM_LON BOM_TYPE BOM_WIND BOM_PRES BOM_TNUM BOM_CI BOM_RMW BOM_R34_NE BOM_R34_SE BOM_R34_SW BOM_R34_NW BOM_R50_NE BOM_R50_SE BOM_R50_SW BOM_R50_NW BOM_R64_NE BOM_R64_SE BOM_R64_SW BOM_R64_NW BOM_ROCI BOM_POCI BOM_EYE BOM_POS_METHOD BOM_PRES_METHOD NADI_LAT NADI_LON NADI_CAT NADI_WIND NADI_PRES WELLINGTON_LAT WELLINGTON_LON WELLINGTON_WIND WELLINGTON_PRES DS824_LAT DS824_LON DS824_STAGE DS824_WIND DS824_PRES TD9636_LAT TD9636_LON TD9636_STAGE TD9636_WIND TD9636_PRES TD9635_LAT TD9635_LON TD9635_WIND TD9635_PRES TD9635_ROCI NEUMANN_LAT NEUMANN_LON NEUMANN_CLASS NEUMANN_WIND NEUMANN_PRES MLC_LAT MLC_LON MLC_CLASS MLC_WIND MLC_PRES USA_GUST BOM_GUST BOM_GUST_PER REUNION_GUST REUNION_GUST_PER USA_SEAHGT USA_SEARAD_NE USA_SEARAD_SE USA_SEARAD_SW USA_SEARAD_NW STORM_SPEED STORM_DIR
1903218N12318 1903 36 NA NA NOT_NAMED 1903-08-06 06:00:00 TS 11.8000 -42.3000 50 hurdat_atl main 1299 1257 O_____________ hurdat_atl AL021903 11.8000 -42.3000 TS 50 0 12 279
1903218N12318 1903 36 NA NA NOT_NAMED 1903-08-06 09:00:00 TS 11.8903 -42.9025 main 1257 1217 P_____________ AL021903 11.8903 -42.9025 TS 50 0 12 280
1903218N12318 1903 36 NA NA NOT_NAMED 1903-08-06 12:00:00 TS 12.0000 -43.5000 50 hurdat_atl main 1217 1179 O_____________ hurdat_atl AL021903 12.0000 -43.5000 TS 50 0 12 282
1903218N12318 1903 36 NA NA NOT_NAMED 1903-08-06 15:00:00 TS 12.1423 -44.0925 main 1179 1153 P_____________ AL021903 12.1423 -44.0925 TS 50 0 12 284
1903218N12318 1903 36 NA NA NOT_NAMED 1903-08-06 18:00:00 TS 12.3000 -44.7000 50 hurdat_atl main 1153 1122 O_____________ hurdat_atl AL021903 12.3000 -44.7000 TS 50 0 12 284
1903218N12318 1903 36 NA NA NOT_NAMED 1903-08-06 21:00:00 TS 12.4348 -45.3277 main 1122 1097 P_____________ AL021903 12.4348 -45.3277 TS 52 0 13 283
1903218N12318 1903 36 NA NA NOT_NAMED 1903-08-07 00:00:00 TS 12.6000 -46.0000 55 hurdat_atl main 1097 1069 O_____________ hurdat_atl AL021903 12.6000 -46.0000 TS 55 0 14 287
1903218N12318 1903 36 NA NA NOT_NAMED 1903-08-07 03:00:00 TS 12.8424 -46.7349 main 1069 1047 P_____________ AL021903 12.8424 -46.7349 TS 60 0 15 289
1903218N12318 1903 36 NA NA NOT_NAMED 1903-08-07 06:00:00 TS 13.1000 -47.5000 65 hurdat_atl main 1047 1027 O_____________ hurdat_atl AL021903 13.1000 -47.5000 HU 65 1 15 288
1903218N12318 1903 36 NA NA NOT_NAMED 1903-08-07 09:00:00 TS 13.3220 -48.2201 main 1027 1008 P_____________ AL021903 13.3220 -48.2201 HU 67 1 15 285
1903218N12318 1903 36 NA NA NOT_NAMED 1903-08-07 12:00:00 TS 13.5000 -49.0000 70 hurdat_atl main 1008 982 O_____________ hurdat_atl AL021903 13.5000 -49.0000 HU 70 1 17 280
1903218N12318 1903 36 NA NA NOT_NAMED 1903-08-07 15:00:00 TS 13.6226 -49.9351 main 982 949 P_____________ AL021903 13.6226 -49.9351 HU 70 1 19 276
1903218N12318 1903 36 NA NA NOT_NAMED 1903-08-07 18:00:00 TS 13.7000 -50.9000 70 hurdat_atl main 945 922 O_____________ hurdat_atl AL021903 13.7000 -50.9000 HU 70 1 18 275
1903218N12318 1903 36 NA NA NOT_NAMED 1903-08-07 21:00:00 TS 13.7647 -51.7800 main 923 902 P_____________ AL021903 13.7647 -51.7800 HU 70 1 17 273
1903218N12318 1903 36 NA NA NOT_NAMED 1903-08-08 00:00:00 TS 13.8000 -52.6000 70 hurdat_atl main 902 890 O_____________ hurdat_atl AL021903 13.8000 -52.6000 HU 70 1 15 271
1903218N12318 1903 36 NA NA NOT_NAMED 1903-08-08 03:00:00 TS 13.7918 -53.3353 main 890 826 P_____________ AL021903 13.7918 -53.3353 HU 70 1 15 270
1903218N12318 1903 36 NA NA NOT_NAMED 1903-08-08 06:00:00 TS 13.8000 -54.1000 70 hurdat_atl main 826 744 O_____________ hurdat_atl AL021903 13.8000 -54.1000 HU 70 1 16 273
1903218N12318 1903 36 NA NA NOT_NAMED 1903-08-08 09:00:00 TS 13.8775 -55.0275 main 744 666 P_____________ AL021903 13.8775 -55.0275 HU 70 1 19 276
1903218N12318 1903 36 NA NA NOT_NAMED 1903-08-08 12:00:00 TS 14.0000 -56.0000 70 hurdat_atl main 657 594 O_____________ hurdat_atl AL021903 14.0000 -56.0000 HU 70 1 18 279
1903218N12318 1903 36 NA NA NOT_NAMED 1903-08-08 15:00:00 TS 14.1569 -56.8924 main 593 539 P_____________ AL021903 14.1569 -56.8924 HU 72 1 18 280
1903218N12318 1903 36 NA NA NOT_NAMED 1903-08-08 18:00:00 TS 14.3000 -57.8000 75 hurdat_atl main 532 478 O_____________ hurdat_atl AL021903 14.3000 -57.8000 HU 75 1 19 276
1903218N12318 1903 36 NA NA NOT_NAMED 1903-08-08 21:00:00 TS 14.3651 -58.8152 main 478 437 P_____________ AL021903 14.3651 -58.8152 HU 77 1 19 273
1903218N12318 1903 36 NA CS NOT_NAMED 1903-08-09 00:00:00 TS 14.4000 -59.8000 80 hurdat_atl main 434 416 O_____________ hurdat_atl AL021903 14.4000 -59.8000 HU 80 1 18 273
1903218N12318 1903 36 NA CS NOT_NAMED 1903-08-09 03:00:00 TS 14.4419 -60.6301 main 416 414 P_____________ AL021903 14.4419 -60.6301 HU 85 2 16 274
1903218N12318 1903 36 NA CS NOT_NAMED 1903-08-09 06:00:00 TS 14.5000 -61.4000 90 970 hurdat_atl main 425 425 O_____________ hurdat_atl AL021903 14.5000 -61.4000 HU 90 970 2 15 276
1903218N12318 1903 36 NA CS NOT_NAMED 1903-08-09 09:00:00 TS 14.5922 -62.1925 main 436 436 P_____________ AL021903 14.5922 -62.1925 HU 95 2 16 277
1903218N12318 1903 36 NA CS NOT_NAMED 1903-08-09 12:00:00 TS 14.7000 -63.0000 100 hurdat_atl main 447 416 O_____________ hurdat_atl AL021903 14.7000 -63.0000 HU 100 3 16 277
1903218N12318 1903 36 NA CS NOT_NAMED 1903-08-09 15:00:00 TS 14.7923 -63.8427 main 416 366 P_____________ AL021903 14.7923 -63.8427 HU 102 3 17 277
1903218N12318 1903 36 NA CS NOT_NAMED 1903-08-09 18:00:00 TS 14.9000 -64.7000 105 hurdat_atl main 366 333 O_____________ hurdat_atl AL021903 14.9000 -64.7000 HU 105 3 17 278
1903218N12318 1903 36 NA CS NOT_NAMED 1903-08-09 21:00:00 TS 15.0346 -65.5426 main 333 302 P_____________ AL021903 15.0346 -65.5426 HU 105 3 17 280
1903218N12318 1903 36 NA CS NOT_NAMED 1903-08-10 00:00:00 TS 15.2000 -66.4000 105 hurdat_atl main 302 279 O_____________ hurdat_atl AL021903 15.2000 -66.4000 HU 105 3 17 282
1903218N12318 1903 36 NA CS NOT_NAMED 1903-08-10 03:00:00 TS 15.3922 -67.2926 main 279 271 P_____________ AL021903 15.3922 -67.2926 HU 105 3 18 283
1903218N12318 1903 36 NA CS NOT_NAMED 1903-08-10 06:00:00 TS 15.6000 -68.2000 105 hurdat_atl main 278 268 O_____________ hurdat_atl AL021903 15.6000 -68.2000 HU 105 3 18 283
1903218N12318 1903 36 NA CS NOT_NAMED 1903-08-10 09:00:00 TS 15.7844 -69.0855 main 270 239 P_____________ AL021903 15.7844 -69.0855 HU 105 3 18 283
1903218N12318 1903 36 NA CS NOT_NAMED 1903-08-10 12:00:00 TS 16.0000 -70.0000 105 hurdat_atl main 232 154 O_____________ hurdat_atl AL021903 16.0000 -70.0000 HU 105 3 19 285
1903218N12318 1903 36 NA CS NOT_NAMED 1903-08-10 15:00:00 TS 16.2849 -71.0000 main 151 123 P_____________ AL021903 16.2849 -71.0000 HU 105 3 20 287
1903218N12318 1903 36 NA CS NOT_NAMED 1903-08-10 18:00:00 TS 16.6000 -72.0000 105 hurdat_atl main 128 128 O_____________ hurdat_atl AL021903 16.6000 -72.0000 HU 105 3 19 289
1903218N12318 1903 36 NA CS NOT_NAMED 1903-08-10 21:00:00 TS 16.9069 -72.9152 main 134 89 P_____________ AL021903 16.9069 -72.9152 HU 105 3 18 289
1903218N12318 1903 36 NA CS NOT_NAMED 1903-08-11 00:00:00 TS 17.2000 -73.8000 105 hurdat_atl main 89 79 O_____________ hurdat_atl AL021903 17.2000 -73.8000 HU 105 3 18 288
1903218N12318 1903 36 NA CS NOT_NAMED 1903-08-11 03:00:00 TS 17.4497 -74.7079 main 105 67 P_____________ AL021903 17.4497 -74.7079 HU 105 3 18 286
1903218N12318 1903 36 NA CS NOT_NAMED 1903-08-11 06:00:00 TS 17.7000 -75.6000 105 hurdat_atl main 67 0 O_____________ hurdat_atl AL021903 17.7000 -75.6000 HU 105 3 18 289
1903218N12318 1903 36 NA CS NOT_NAMED 1903-08-11 09:00:00 TS 18.0148 -76.4798 main 0 0 P_____________ AL021903 18.0148 -76.4798 HU 105 3 17 290
1903218N12318 1903 36 NA CS NOT_NAMED 1903-08-11 12:00:00 TS 18.3000 -77.3000 105 hurdat_atl main 0 0 O_____________ hurdat_atl AL021903 18.3000 -77.3000 HU 105 3 15 287
1903218N12318 1903 36 NA CS NOT_NAMED 1903-08-11 15:00:00 TS 18.4646 -78.0305 main 11 11 P_____________ AL021903 18.4646 -78.0305 HU 105 3 14 283
1903218N12318 1903 36 NA CS NOT_NAMED 1903-08-11 18:00:00 TS 18.6000 -78.7000 105 hurdat_atl main 47 47 O_____________ hurdat_atl AL021903 18.6000 -78.7000 HU 105 3 13 284
1903218N12318 1903 36 NA CS NOT_NAMED 1903-08-11 21:00:00 TS 18.7923 -79.3725 main 124 124 P_____________ AL021903 18.7923 -79.3725 HU 105 3 13 288
1903218N12318 1903 36 NA CS NOT_NAMED 1903-08-12 00:00:00 TS 19.0000 -80.0000 105 hurdat_atl main 190 190 O_____________ hurdat_atl AL021903 19.0000 -80.0000 HU 105 3 12 291
1903218N12318 1903 36 NA CS NOT_NAMED 1903-08-12 03:00:00 TS 19.2070 -80.5427 main 247 247 P_____________ AL021903 19.2070 -80.5427 HU 105 3 11 291
1903218N12318 1903 36 NA CS NOT_NAMED 1903-08-12 06:00:00 TS 19.4000 -81.1000 105 958 hurdat_atl main 281 241 O_____________ hurdat_atl AL021903 19.4000 -81.1000 HU 105 958 3 12 286
1903218N12318 1903 36 NA CS NOT_NAMED 1903-08-12 09:00:00 TS 19.5499 -81.7703 main 236 192 P_____________ AL021903 19.5499 -81.7703 HU 105 3 14 283
1903218N12318 1903 36 NA CS NOT_NAMED 1903-08-12 12:00:00 TS 19.7000 -82.5000 105 hurdat_atl main 192 170 O_____________ hurdat_atl AL021903 19.7000 -82.5000 HU 105 3 14 284
1903218N12318 1903 36 NA CS NOT_NAMED 1903-08-12 15:00:00 TS 19.8997 -83.2350 main 172 168 P_____________ AL021903 19.8997 -83.2350 HU 105 3 15 286
1903218N12318 1903 36 NA CS NOT_NAMED 1903-08-12 18:00:00 TS 20.1000 -84.0000 105 hurdat_atl main 187 178 O_____________ hurdat_atl AL021903 20.1000 -84.0000 HU 105 3 15 284
1903218N12318 1903 36 NA CS NOT_NAMED 1903-08-12 21:00:00 TS 20.2496 -84.7854 main 178 138 P_____________ AL021903 20.2496 -84.7854 HU 105 3 15 281
1903218N12318 1903 36 NA CS NOT_NAMED 1903-08-13 00:00:00 TS 20.4000 -85.6000 105 hurdat_atl main 138 56 O_____________ hurdat_atl AL021903 20.4000 -85.6000 HU 105 3 16 283
1903218N12318 1903 36 NA CS NOT_NAMED 1903-08-13 03:00:00 TS 20.6078 -86.4872 main 47 0 P_____________ AL021903 20.6078 -86.4872 HU 95 2 16 284
1903218N12318 1903 36 NA NA NOT_NAMED 1903-08-13 06:00:00 TS 20.8000 -87.3000 85 hurdat_atl main 0 0 O_____________ hurdat_atl AL021903 20.8000 -87.3000 HU 85 2 14 283
1903218N12318 1903 36 NA NA NOT_NAMED 1903-08-13 09:00:00 TS 20.9144 -87.9028 main 0 0 P_____________ AL021903 20.9144 -87.9028 HU 77 1 10 281
1903218N12318 1903 36 NA NA NOT_NAMED 1903-08-13 12:00:00 TS 21.0000 -88.4000 70 hurdat_atl main 0 0 O_____________ hurdat_atl AL021903 21.0000 -88.4000 HU 70 1 10 281
1903218N12318 1903 36 NA NA NOT_NAMED 1903-08-13 15:00:00 TS 21.0998 -88.9076 main 0 0 P_____________ AL021903 21.0998 -88.9076 HU 67 1 10 282
1903218N12318 1903 36 NA NA NOT_NAMED 1903-08-13 18:00:00 TS 21.2000 -89.4000 65 hurdat_atl main 0 0 O_____________ hurdat_atl AL021903 21.2000 -89.4000 HU 65 1 9 282
1903218N12318 1903 36 NA GM NOT_NAMED 1903-08-13 21:00:00 TS 21.2924 -89.9001 main 11 11 P_____________ AL021903 21.2924 -89.9001 HU 67 1 10 282
1903218N12318 1903 36 NA GM NOT_NAMED 1903-08-14 00:00:00 TS 21.4000 -90.4000 70 hurdat_atl main 35 35 O_____________ hurdat_atl AL021903 21.4000 -90.4000 HU 70 1 10 285
1903218N12318 1903 36 NA GM NOT_NAMED 1903-08-14 03:00:00 TS 21.5423 -90.8926 main 76 76 P_____________ AL021903 21.5423 -90.8926 HU 70 1 10 288
1903218N12318 1903 36 NA GM NOT_NAMED 1903-08-14 06:00:00 TS 21.7000 -91.4000 70 hurdat_atl main 132 132 O_____________ hurdat_atl AL021903 21.7000 -91.4000 HU 70 1 10 288
1903218N12318 1903 36 NA GM NOT_NAMED 1903-08-14 09:00:00 TS 21.8650 -91.9574 main 197 197 P_____________ AL021903 21.8650 -91.9574 HU 70 1 11 286
1903218N12318 1903 36 NA GM NOT_NAMED 1903-08-14 12:00:00 TS 22.0000 -92.5000 70 hurdat_atl main 248 248 O_____________ hurdat_atl AL021903 22.0000 -92.5000 HU 70 1 10 282
1903218N12318 1903 36 NA GM NOT_NAMED 1903-08-14 15:00:00 TS 22.0572 -92.9653 main 300 300 P_____________ AL021903 22.0572 -92.9653 HU 70 1 8 277
1903218N12318 1903 36 NA GM NOT_NAMED 1903-08-14 18:00:00 TS 22.1000 -93.4000 70 hurdat_atl main 339 339 O_____________ hurdat_atl AL021903 22.1000 -93.4000 HU 70 1 8 279
1903218N12318 1903 36 NA GM NOT_NAMED 1903-08-14 21:00:00 TS 22.1849 -93.8576 main 357 319 P_____________ AL021903 22.1849 -93.8576 HU 70 1 9 283
1903218N12318 1903 36 NA GM NOT_NAMED 1903-08-15 00:00:00 TS 22.3000 -94.3000 70 hurdat_atl main 319 282 O_____________ hurdat_atl AL021903 22.3000 -94.3000 HU 70 1 8 288
1903218N12318 1903 36 NA GM NOT_NAMED 1903-08-15 03:00:00 TS 22.4348 -94.7001 main 282 252 P_____________ AL021903 22.4348 -94.7001 HU 70 1 8 292
1903218N12318 1903 36 NA GM NOT_NAMED 1903-08-15 06:00:00 TS 22.6000 -95.1000 70 986 hurdat_atl main 252 228 O_____________ hurdat_atl AL021903 22.6000 -95.1000 HU 70 986 1 9 296
1903218N12318 1903 36 NA GM NOT_NAMED 1903-08-15 09:00:00 TS 22.8150 -95.5498 main 228 184 P_____________ AL021903 22.8150 -95.5498 HU 70 1 9 296
1903218N12318 1903 36 NA GM NOT_NAMED 1903-08-15 12:00:00 TS 23.0000 -96.0000 70 hurdat_atl main 184 143 O_____________ hurdat_atl AL021903 23.0000 -96.0000 HU 70 1 8 289
1903218N12318 1903 36 NA GM NOT_NAMED 1903-08-15 15:00:00 TS 23.0873 -96.4076 main 143 102 P_____________ AL021903 23.0873 -96.4076 HU 70 1 7 278
1903218N12318 1903 36 NA GM NOT_NAMED 1903-08-15 18:00:00 TS 23.1000 -96.8000 70 hurdat_atl main 102 61 O_____________ hurdat_atl AL021903 23.1000 -96.8000 HU 70 1 7 269
1903218N12318 1903 36 NA GM NOT_NAMED 1903-08-15 21:00:00 TS 23.0725 -97.2076 main 61 20 P_____________ AL021903 23.0725 -97.2076 HU 70 1 7 262
1903218N12318 1903 36 NA GM NOT_NAMED 1903-08-16 00:00:00 TS 23.0000 -97.6000 70 hurdat_atl main 20 0 O_____________ hurdat_atl AL021903 23.0000 -97.6000 HU 70 1 7 257
1903218N12318 1903 36 NA NA NOT_NAMED 1903-08-16 03:00:00 TS 22.9149 -97.9574 main 0 0 P_____________ AL021903 22.9149 -97.9574 HU 60 0 7 253
1903218N12318 1903 36 NA NA NOT_NAMED 1903-08-16 06:00:00 TS 22.8000 -98.3000 50 hurdat_atl main 0 0 O_____________ hurdat_atl AL021903 22.8000 -98.3000 TS 50 0 7 249
1903218N12318 1903 36 NA NA NOT_NAMED 1903-08-16 09:00:00 TS 22.6725 -98.6574 main 0 0 P_____________ AL021903 22.6725 -98.6574 TS 45 0 7 245
1903218N12318 1903 36 NA NA NOT_NAMED 1903-08-16 12:00:00 TS 22.5000 -99.0000 40 hurdat_atl main 0 0 O_____________ hurdat_atl AL021903 22.5000 -99.0000 TS 40 0 7 236
1903218N12318 1903 36 NA NA NOT_NAMED 1903-08-16 15:00:00 TS 22.2676 -99.3102 main 0 0 P_____________ AL021903 22.2676 -99.3102 TS 37 0 7 228
1903218N12318 1903 36 NA NA NOT_NAMED 1903-08-16 18:00:00 TS 22.0000 -99.6000 35 hurdat_atl main 0 O_____________ hurdat_atl AL021903 22.0000 -99.6000 TS 35 0 8 225

IBTrACS Databaseについて

本データベースは、米国NOAAが公開する1842年以降の世界の熱帯低気圧のベストトラックデータアーカイブInternational Best Track Archive for Climate Stewardship (IBTrACS)を、ウェブで閲覧しやすい形式に変換したものです。

最終更新日:2021-10-21